Riverdale, Utah
Current Conditions -  °F | °C
As of 1:58 PM on Saturday 25 Oct 2014 (Local Time) from KHIF Reporting Station
Clear Clear  
Wind Chill: 74°   Ceiling: Unl
Heat Index: 74°   Visibility: 10mi
Dew Point: 33°   Wind: 22mph
Humidity: 22%   Direction: 180°S
Pressure: 30.01"   Gusts: 30mph
Location:  41.162°N, 111.972°W
Report Text: KHIF 251958Z AUTO 18019G26KT 10SM CLR 24/01 A3001 RMK AO2 PK WND 19033/25 RAB1901E1908 SLP113 P0000 T02350007
Loading
Personal Weather Stations






























Interactive Weather Map
Tropical Storm Tracking
New forecast layout! Learn more

10-Day Weather Forecast

Advertisements
Track Severe Weather on mobile